createdAt,value
2023-05-11T00:01:22.812Z,100550.44
2023-05-11T00:03:50.847Z,100548.00
2023-05-11T00:06:18.833Z,100545.50
2023-05-11T00:08:46.779Z,100550.28
2023-05-11T00:11:18.488Z,100552.19
2023-05-11T00:13:46.599Z,100540.41
2023-05-11T00:16:14.885Z,100547.28
2023-05-11T00:18:43.013Z,100544.97
2023-05-11T00:21:10.980Z,100536.97
2023-05-11T00:23:38.969Z,100534.47
2023-05-11T00:26:06.934Z,100532.50
2023-05-11T00:28:34.864Z,100530.66
2023-05-11T00:31:03.156Z,100531.94
2023-05-11T00:33:31.535Z,100527.97
2023-05-11T00:35:59.490Z,100529.16
2023-05-11T00:38:27.524Z,100528.34
2023-05-11T00:40:55.586Z,100526.34
2023-05-11T00:43:23.897Z,100522.75
2023-05-11T00:45:53.407Z,100529.16
2023-05-11T00:48:21.788Z,100516.00
2023-05-11T00:50:50.509Z,100519.59
2023-05-11T00:53:18.586Z,100517.97
2023-05-11T00:55:46.739Z,100514.38
2023-05-11T00:58:15.974Z,100519.13
2023-05-11T01:00:44.459Z,100525.81
2023-05-11T01:03:14.885Z,100527.50
2023-05-11T01:06:08.948Z,100517.53
2023-05-11T01:08:53.255Z,100524.28
2023-05-11T01:11:47.194Z,100526.72
2023-05-11T01:14:46.854Z,100526.72
2023-05-11T01:17:52.859Z,100527.50
2023-05-11T01:20:27.770Z,100519.50
2023-05-11T01:23:14.333Z,100525.81
2023-05-11T01:26:32.130Z,100520.31
2023-05-11T01:30:11.429Z,100515.44
2023-05-11T01:32:43.052Z,100524.28
2023-05-11T01:35:19.082Z,100523.00
2023-05-11T01:37:54.259Z,100522.88
2023-05-11T01:40:28.181Z,100531.25
2023-05-11T01:43:05.191Z,100530.09
2023-05-11T01:45:42.494Z,100533.25
2023-05-11T01:48:35.812Z,100532.53
2023-05-11T01:51:04.594Z,100536.13
2023-05-11T01:53:38.738Z,100531.25
2023-05-11T01:56:07.498Z,100537.31
2023-05-11T01:58:37.289Z,100538.47
2023-05-11T02:01:06.802Z,100536.13
2023-05-11T02:03:37.666Z,100540.09
2023-05-11T02:06:06.898Z,100535.53
2023-05-11T02:08:38.343Z,100535.88
2023-05-11T02:11:08.090Z,100539.03
2023-05-11T02:13:42.497Z,100532.66
2023-05-11T02:16:11.174Z,100544.97
2023-05-11T02:18:41.609Z,100541.00
2023-05-11T02:21:10.999Z,100543.00
2023-05-11T02:23:40.428Z,100542.66
2023-05-11T02:26:09.530Z,100538.22
2023-05-11T02:28:37.507Z,100537.06
2023-05-11T02:31:21.510Z,100546.59
2023-05-11T02:33:52.589Z,100533.78
2023-05-11T02:36:24.678Z,100541.72
2023-05-11T02:39:04.261Z,100545.69
2023-05-11T02:41:33.574Z,100545.69
2023-05-11T02:44:06.612Z,100540.00
2023-05-11T02:46:38.743Z,100543.25
2023-05-11T02:49:10.459Z,100539.16
2023-05-11T02:51:43.356Z,100545.59
2023-05-11T02:54:13.441Z,100540.69
2023-05-11T02:56:47.056Z,100551.03
2023-05-11T02:59:15.882Z,100549.44
2023-05-11T03:01:45.392Z,100553.03
2023-05-11T03:04:13.835Z,100551.38
2023-05-11T03:06:42.855Z,100553.38
2023-05-11T03:09:11.889Z,100547.78
2023-05-11T03:11:45.607Z,100547.78
2023-05-11T03:14:14.384Z,100558.94
2023-05-11T03:16:44.370Z,100547.78
2023-05-11T03:19:13.644Z,100549.22
2023-05-11T03:21:41.840Z,100550.94
2023-05-11T03:24:12.092Z,100553.38
2023-05-11T03:26:43.996Z,100550.94
2023-05-11T03:29:13.672Z,100546.19
2023-05-11T03:31:41.956Z,100548.59
2023-05-11T03:34:10.216Z,100545.00
2023-05-11T03:36:45.585Z,100544.53
2023-05-11T03:39:16.731Z,100543.38
2023-05-11T03:41:50.345Z,100546.63
2023-05-11T03:44:22.057Z,100543.38
2023-05-11T03:46:55.257Z,100546.97
2023-05-11T03:49:24.486Z,100540.59
2023-05-11T03:51:53.558Z,100535.03
2023-05-11T03:54:22.171Z,100538.25
2023-05-11T03:56:52.090Z,100533.13
2023-05-11T03:59:22.021Z,100542.66
2023-05-11T04:01:53.023Z,100543.94
2023-05-11T04:04:25.941Z,100542.41
2023-05-11T04:06:53.910Z,100544.28
2023-05-11T04:09:23.602Z,100546.28
2023-05-11T04:11:52.797Z,100548.25
2023-05-11T04:14:20.843Z,100542.22
2023-05-11T04:16:49.211Z,100543.84
2023-05-11T04:19:17.159Z,100549.44
2023-05-11T04:21:46.872Z,100545.81
2023-05-11T04:24:15.012Z,100543.84
2023-05-11T04:26:42.970Z,100552.91
2023-05-11T04:29:11.470Z,100551.16
2023-05-11T04:31:39.875Z,100552.69
2023-05-11T04:34:08.345Z,100561.75
2023-05-11T04:36:38.199Z,100561.75
2023-05-11T04:39:07.800Z,100553.97
2023-05-11T04:41:37.778Z,100555.03
2023-05-11T04:44:06.212Z,100561.06
2023-05-11T04:46:34.429Z,100558.16
2023-05-11T04:49:02.509Z,100559.09
2023-05-11T04:51:32.398Z,100560.50
2023-05-11T04:54:00.954Z,100556.56
2023-05-11T04:56:28.863Z,100563.53
2023-05-11T04:58:56.823Z,100567.34
2023-05-11T05:01:25.618Z,100569.56
2023-05-11T05:03:53.766Z,100572.25
2023-05-11T05:06:21.782Z,100568.28
2023-05-11T05:08:49.691Z,100574.34
2023-05-11T05:11:18.002Z,100579.44
2023-05-11T05:13:46.375Z,100575.50
2023-05-11T05:16:14.735Z,100575.03
2023-05-11T05:18:43.901Z,100585.81
2023-05-11T05:21:12.137Z,100580.47
2023-05-11T05:23:40.283Z,100581.75
2023-05-11T05:26:08.213Z,100589.00
2023-05-11T05:28:38.875Z,100593.59
2023-05-11T05:31:07.033Z,100593.09
2023-05-11T05:33:35.122Z,100594.06
2023-05-11T05:36:03.423Z,100592.63
2023-05-11T05:38:31.507Z,100596.00
2023-05-11T05:40:59.905Z,100594.94
2023-05-11T05:43:30.906Z,100605.16
2023-05-11T05:45:59.600Z,100598.44
2023-05-11T05:48:29.607Z,100611.19
2023-05-11T05:50:57.765Z,100615.16
2023-05-11T05:53:26.120Z,100614.00
2023-05-11T05:55:54.127Z,100617.84
2023-05-11T05:58:24.602Z,100611.19
2023-05-11T06:00:52.909Z,100616.44
2023-05-11T06:03:21.071Z,100616.69
2023-05-11T06:05:49.326Z,100616.84
2023-05-11T06:08:17.444Z,100621.38
2023-05-11T06:10:49.421Z,100618.34
2023-05-11T06:13:18.716Z,100624.88
2023-05-11T06:15:46.755Z,100622.66
2023-05-11T06:18:31.365Z,100624.53
2023-05-11T06:21:00.550Z,100619.78
2023-05-11T06:23:30.619Z,100620.56
2023-05-11T06:25:58.861Z,100627.78
2023-05-11T06:28:29.853Z,100623.03
2023-05-11T06:31:03.681Z,100623.13
2023-05-11T06:33:36.271Z,100623.63
2023-05-11T06:36:07.995Z,100623.41
2023-05-11T06:38:37.641Z,100615.81
2023-05-11T06:41:06.462Z,100623.75
2023-05-11T06:43:34.453Z,100624.31
2023-05-11T06:46:04.877Z,100628.84
2023-05-11T06:48:33.646Z,100624.75
2023-05-11T06:51:01.857Z,100635.94
2023-05-11T06:53:29.792Z,100626.41
2023-05-11T06:55:59.375Z,100628.50
2023-05-11T06:58:27.885Z,100629.41
2023-05-11T07:00:56.603Z,100636.41
2023-05-11T07:03:25.035Z,100628.47
2023-05-11T07:05:53.161Z,100633.59
2023-05-11T07:08:21.378Z,100626.50
2023-05-11T07:10:49.666Z,100632.53
2023-05-11T07:13:17.655Z,100632.41
2023-05-11T07:15:45.676Z,100637.09
2023-05-11T07:18:13.808Z,100638.97
2023-05-11T07:20:41.941Z,100631.97
2023-05-11T07:23:09.949Z,100633.94
2023-05-11T07:25:37.902Z,100639.19
2023-05-11T07:28:06.024Z,100641.88
2023-05-11T07:30:33.935Z,100638.00
2023-05-11T07:33:03.342Z,100642.78
2023-05-11T07:35:31.521Z,100644.66
2023-05-11T07:38:15.732Z,100647.09
2023-05-11T07:40:44.114Z,100649.41
2023-05-11T07:43:12.867Z,100651.75
2023-05-11T07:45:40.829Z,100646.63
2023-05-11T07:48:09.221Z,100645.56
2023-05-11T07:50:38.080Z,100653.59
2023-05-11T07:53:06.080Z,100658.59
2023-05-11T07:55:34.681Z,100648.25
2023-05-11T07:58:02.914Z,100649.91
2023-05-11T08:00:31.335Z,100653.84
2023-05-11T08:02:59.817Z,100654.28
2023-05-11T08:05:29.348Z,100659.19
2023-05-11T08:07:57.336Z,100651.97
2023-05-11T08:10:25.795Z,100653.16
2023-05-11T08:12:54.757Z,100658.50
2023-05-11T08:15:22.740Z,100661.97
2023-05-11T08:20:21.351Z,100667.31
2023-05-11T08:22:49.349Z,100663.13
2023-05-11T08:25:18.188Z,100663.03
2023-05-11T08:27:46.623Z,100662.91
2023-05-11T08:30:14.860Z,100673.03
2023-05-11T08:32:54.628Z,100668.16
2023-05-11T08:35:27.240Z,100664.56
2023-05-11T08:37:55.262Z,100663.38
2023-05-11T08:40:27.812Z,100669.91
2023-05-11T08:42:57.394Z,100665.22
2023-05-11T08:45:27.470Z,100670.16
2023-05-11T08:47:56.094Z,100671.75
2023-05-11T08:50:24.525Z,100668.00
2023-05-11T08:52:52.674Z,100668.00
2023-05-11T08:55:22.739Z,100667.56
2023-05-11T08:57:53.643Z,100671.75
2023-05-11T09:00:23.313Z,100668.50
2023-05-11T09:02:52.336Z,100667.56
2023-05-11T09:05:21.543Z,100673.38
2023-05-11T09:07:57.271Z,100676.19
2023-05-11T09:10:25.560Z,100675.84
2023-05-11T09:12:53.516Z,100682.22
2023-05-11T09:15:21.795Z,100672.00
2023-05-11T09:17:50.190Z,100684.28
2023-05-11T09:20:29.545Z,100685.69
2023-05-11T09:23:00.973Z,100682.19
2023-05-11T09:25:33.595Z,100680.91
2023-05-11T09:28:01.804Z,100676.41
2023-05-11T09:30:30.902Z,100671.25
2023-05-11T09:33:01.362Z,100674.59
2023-05-11T09:35:35.452Z,100676.25
2023-05-11T09:38:12.458Z,100678.97
2023-05-11T09:40:43.641Z,100673.06
2023-05-11T09:43:26.656Z,100671.03
2023-05-11T09:45:58.888Z,100669.03
2023-05-11T09:48:32.055Z,100667.88
2023-05-11T09:51:05.422Z,100683.13
2023-05-11T09:53:42.643Z,100673.56
2023-05-11T09:56:15.572Z,100675.91
2023-05-11T09:58:49.313Z,100668.59
2023-05-11T10:01:34.326Z,100675.28
2023-05-11T10:04:22.058Z,100667.53
2023-05-11T10:06:53.884Z,100679.44
2023-05-11T10:09:26.620Z,100670.78
2023-05-11T10:11:56.899Z,100665.63
2023-05-11T10:14:28.267Z,100665.00
2023-05-11T10:16:59.091Z,100668.31
2023-05-11T10:19:27.834Z,100667.16
2023-05-11T10:21:56.964Z,100671.03
2023-05-11T10:24:25.451Z,100663.63
2023-05-11T10:26:54.147Z,100657.09
2023-05-11T10:29:22.716Z,100660.34
2023-05-11T10:33:49.269Z,100655.16
2023-05-11T10:36:19.455Z,100661.00
2023-05-11T10:38:47.961Z,100662.75
2023-05-11T10:41:35.458Z,100660.75
2023-05-11T10:44:57.470Z,100653.38
2023-05-11T10:48:17.891Z,100661.06
2023-05-11T10:51:42.844Z,100658.88
2023-05-11T10:54:43.166Z,100654.91
2023-05-11T10:57:36.026Z,100659.91
2023-05-11T11:00:43.383Z,100660.91
2023-05-11T11:03:13.263Z,100658.88
2023-05-11T11:05:43.727Z,100658.94
2023-05-11T11:08:12.158Z,100657.53
2023-05-11T11:10:46.855Z,100652.69
2023-05-11T11:13:17.024Z,100653.19
2023-05-11T11:15:54.195Z,100663.25
2023-05-11T11:18:28.464Z,100658.16
2023-05-11T11:20:59.027Z,100651.38
2023-05-11T11:23:48.979Z,100661.69
2023-05-11T11:26:49.352Z,100666.13
2023-05-11T11:29:17.816Z,100653.41
2023-05-11T11:31:46.114Z,100665.91
2023-05-11T11:34:29.845Z,100651.59
2023-05-11T11:36:58.677Z,100653.94
2023-05-11T11:39:42.654Z,100663.06
2023-05-11T11:42:19.145Z,100655.25
2023-05-11T11:44:48.413Z,100655.69
2023-05-11T11:47:21.946Z,100657.38
2023-05-11T11:49:54.482Z,100654.41
2023-05-11T11:52:28.539Z,100655.63
2023-05-11T11:55:03.817Z,100656.59
2023-05-11T11:57:34.755Z,100655.78
2023-05-11T12:00:06.943Z,100654.47
2023-05-11T12:02:45.859Z,100652.09
2023-05-11T12:05:20.175Z,100654.50
2023-05-11T12:07:53.182Z,100667.44
2023-05-11T12:10:22.796Z,100659.47
2023-05-11T12:12:54.973Z,100654.38
2023-05-11T12:15:29.728Z,100660.44
2023-05-11T12:17:58.578Z,100657.50
2023-05-11T12:20:26.446Z,100656.84
2023-05-11T12:22:54.856Z,100653.94
2023-05-11T12:25:23.590Z,100652.47
2023-05-11T12:27:58.023Z,100656.66
2023-05-11T12:30:30.170Z,100652.03
2023-05-11T12:33:04.497Z,100644.13
2023-05-11T12:35:34.713Z,100657.09
2023-05-11T12:38:05.834Z,100663.81
2023-05-11T12:40:34.996Z,100658.13
2023-05-11T12:43:03.195Z,100659.06
2023-05-11T12:45:32.253Z,100652.69
2023-05-11T12:48:01.474Z,100654.97
2023-05-11T12:50:30.089Z,100650.53
2023-05-11T12:53:22.741Z,100646.78
2023-05-11T12:56:00.565Z,100645.16
2023-05-11T12:58:41.957Z,100649.84
2023-05-11T13:01:10.760Z,100635.91
2023-05-11T13:03:39.130Z,100636.63
2023-05-11T13:06:14.194Z,100637.38
2023-05-11T13:08:47.186Z,100644.56
2023-05-11T13:11:26.513Z,100639.41
2023-05-11T13:13:57.339Z,100637.72
2023-05-11T13:16:32.661Z,100633.34
2023-05-11T13:19:04.263Z,100634.34
2023-05-11T13:21:33.433Z,100639.63
2023-05-11T13:24:07.080Z,100628.03
2023-05-11T13:26:35.602Z,100627.47
2023-05-11T13:29:11.234Z,100630.06
2023-05-11T13:31:50.648Z,100614.25
2023-05-11T13:34:20.005Z,100621.97
2023-05-11T13:36:48.488Z,100615.97
2023-05-11T13:39:16.931Z,100613.88
2023-05-11T13:41:45.693Z,100612.94
2023-05-11T13:44:14.043Z,100625.06
2023-05-11T13:46:42.381Z,100610.97
2023-05-11T13:49:11.303Z,100610.56
2023-05-11T13:51:39.518Z,100607.25
2023-05-11T13:54:07.601Z,100612.69
2023-05-11T13:56:36.285Z,100613.81
2023-05-11T13:59:04.123Z,100612.56
2023-05-11T14:01:32.242Z,100614.88
2023-05-11T14:04:00.834Z,100606.63
2023-05-11T14:06:28.851Z,100612.75
2023-05-11T14:08:56.818Z,100605.94
2023-05-11T14:11:25.448Z,100609.25
2023-05-11T14:13:53.840Z,100604.38
2023-05-11T14:16:23.009Z,100609.91
2023-05-11T14:18:51.233Z,100611.50
2023-05-11T14:21:19.551Z,100609.50
2023-05-11T14:24:02.040Z,100606.94
2023-05-11T14:26:35.814Z,100610.63
2023-05-11T14:29:04.523Z,100613.03
2023-05-11T14:31:34.745Z,100617.03
2023-05-11T14:34:04.776Z,100609.69
2023-05-11T14:36:33.367Z,100603.22
2023-05-11T14:39:01.297Z,100601.94
2023-05-11T14:41:29.254Z,100607.09
2023-05-11T14:43:58.014Z,100610.63
2023-05-11T14:46:26.961Z,100605.44
2023-05-11T14:48:55.440Z,100603.03
2023-05-11T14:51:23.535Z,100605.63
2023-05-11T14:53:52.203Z,100606.44
2023-05-11T14:56:21.989Z,100608.44
2023-05-11T14:58:50.231Z,100613.19
2023-05-11T15:01:18.690Z,100615.72
2023-05-11T15:03:47.353Z,100613.59
2023-05-11T15:06:22.393Z,100614.78
2023-05-11T15:08:51.406Z,100611.16
2023-05-11T15:11:19.463Z,100610.66
2023-05-11T15:13:47.618Z,100612.78
2023-05-11T15:16:16.123Z,100610.31
2023-05-11T15:18:44.497Z,100615.09
2023-05-11T15:21:12.844Z,100614.09
2023-05-11T15:23:42.376Z,100613.03
2023-05-11T15:26:10.492Z,100618.22
2023-05-11T15:28:38.409Z,100611.72
2023-05-11T15:31:06.918Z,100609.47
2023-05-11T15:33:35.113Z,100618.22
2023-05-11T15:36:11.299Z,100612.59
2023-05-11T15:38:40.026Z,100616.59
2023-05-11T15:41:08.926Z,100623.75
2023-05-11T15:43:36.943Z,100615.41
2023-05-11T15:46:05.690Z,100616.72
2023-05-11T15:48:33.820Z,100622.44
2023-05-11T15:51:02.757Z,100617.41
2023-05-11T15:53:31.592Z,100626.75
2023-05-11T15:56:00.161Z,100622.88
2023-05-11T15:58:36.422Z,100627.47
2023-05-11T16:01:07.169Z,100621.53
2023-05-11T16:03:35.796Z,100618.53
2023-05-11T16:06:04.856Z,100618.53
2023-05-11T16:08:32.898Z,100617.88
2023-05-11T16:11:01.213Z,100616.31
2023-05-11T16:13:30.445Z,100622.22
2023-05-11T16:15:59.374Z,100621.09
2023-05-11T16:18:34.891Z,100620.22
2023-05-11T16:21:04.027Z,100623.41
2023-05-11T16:23:32.653Z,100615.94
2023-05-11T16:26:01.100Z,100620.66
2023-05-11T16:28:29.285Z,100616.03
2023-05-11T16:30:59.325Z,100621.09
2023-05-11T16:33:27.807Z,100624.50
2023-05-11T16:35:56.071Z,100626.84
2023-05-11T16:38:24.368Z,100621.47
2023-05-11T16:40:52.264Z,100612.69
2023-05-11T16:43:20.634Z,100623.75
2023-05-11T16:45:49.088Z,100619.59
2023-05-11T16:48:18.058Z,100626.81
2023-05-11T16:50:46.866Z,100621.50
2023-05-11T16:53:15.058Z,100615.47
2023-05-11T16:55:43.110Z,100616.66
2023-05-11T16:58:11.543Z,100617.16
2023-05-11T17:00:40.080Z,100618.47
2023-05-11T17:03:08.421Z,100617.94
2023-05-11T17:05:36.322Z,100617.13
2023-05-11T17:08:04.349Z,100620.66
2023-05-11T17:10:32.708Z,100627.44
2023-05-11T17:13:01.196Z,100615.25
2023-05-11T17:15:29.562Z,100614.53
2023-05-11T17:17:57.988Z,100617.31
2023-05-11T17:20:26.917Z,100619.31
2023-05-11T17:22:55.746Z,100617.88
2023-05-11T17:25:24.338Z,100612.28
2023-05-11T17:27:52.244Z,100619.06
2023-05-11T17:30:22.232Z,100618.78
2023-05-11T17:32:52.375Z,100613.91
2023-05-11T17:35:20.631Z,100620.94
2023-05-11T17:37:48.971Z,100625.38
2023-05-11T17:40:20.924Z,100626.44
2023-05-11T17:42:49.587Z,100623.84
2023-05-11T17:45:18.060Z,100630.06
2023-05-11T17:47:50.160Z,100628.69
2023-05-11T17:50:18.643Z,100627.53
2023-05-11T17:52:49.439Z,100629.53
2023-05-11T17:55:19.447Z,100631.69
2023-05-11T17:57:48.352Z,100632.59
2023-05-11T18:00:17.108Z,100630.53
2023-05-11T18:02:49.909Z,100633.72
2023-05-11T18:05:18.496Z,100643.50
2023-05-11T18:07:46.691Z,100633.59
2023-05-11T18:10:15.478Z,100641.66
2023-05-11T18:12:43.495Z,100640.59
2023-05-11T18:15:14.845Z,100642.94
2023-05-11T18:17:43.413Z,100642.47
2023-05-11T18:20:12.007Z,100649.84
2023-05-11T18:22:40.380Z,100657.44
2023-05-11T18:25:09.868Z,100659.09
2023-05-11T18:27:38.192Z,100660.25
2023-05-11T18:30:07.458Z,100660.84
2023-05-11T18:32:35.870Z,100660.84
2023-05-11T18:35:04.533Z,100661.69
2023-05-11T18:37:35.592Z,100654.47
2023-05-11T18:40:08.333Z,100656.34
2023-05-11T18:42:36.613Z,100665.78
2023-05-11T18:45:05.723Z,100663.44
2023-05-11T18:47:36.082Z,100662.88
2023-05-11T18:50:05.455Z,100671.00
2023-05-11T18:52:34.611Z,100672.19
2023-05-11T18:55:02.980Z,100669.16
2023-05-11T18:57:33.948Z,100673.59
2023-05-11T19:00:01.671Z,100666.13
2023-05-11T19:02:29.762Z,100672.22
2023-05-11T19:04:58.335Z,100673.38
2023-05-11T19:07:26.333Z,100675.47
2023-05-11T19:09:54.767Z,100678.59
2023-05-11T19:12:22.842Z,100676.88
2023-05-11T19:14:55.285Z,100676.41
2023-05-11T19:17:23.788Z,100677.72
2023-05-11T19:19:52.370Z,100681.53
2023-05-11T19:22:21.897Z,100679.53
2023-05-11T19:24:50.661Z,100680.03
2023-05-11T19:27:19.024Z,100681.31
2023-05-11T19:29:50.606Z,100665.72
2023-05-11T19:32:19.223Z,100665.00
2023-05-11T19:34:47.439Z,100674.53
2023-05-11T19:37:15.937Z,100671.63
2023-05-11T19:39:44.092Z,100677.78
2023-05-11T19:42:12.916Z,100687.34
2023-05-11T19:44:43.501Z,100680.56
2023-05-11T19:47:11.908Z,100688.41
2023-05-11T19:49:40.186Z,100690.25
2023-05-11T19:52:08.547Z,100689.19
2023-05-11T19:54:36.778Z,100691.53
2023-05-11T19:57:05.073Z,100689.69
2023-05-11T19:59:33.465Z,100693.50
2023-05-11T20:02:02.700Z,100695.72
2023-05-11T20:04:31.180Z,100697.56
2023-05-11T20:06:59.138Z,100687.81
2023-05-11T20:09:27.309Z,100693.84
2023-05-11T20:11:56.039Z,100690.59
2023-05-11T20:14:24.433Z,100695.38
2023-05-11T20:16:52.396Z,100701.19
2023-05-11T20:19:23.123Z,100696.19
2023-05-11T20:21:51.838Z,100695.47
2023-05-11T20:24:19.706Z,100695.03
2023-05-11T20:26:47.854Z,100691.63
2023-05-11T20:29:16.182Z,100699.22
2023-05-11T20:31:46.415Z,100689.44
2023-05-11T20:34:15.049Z,100689.69
2023-05-11T20:36:42.935Z,100696.66
2023-05-11T20:39:11.348Z,100696.66
2023-05-11T20:41:39.235Z,100691.41
2023-05-11T20:44:22.679Z,100699.09
2023-05-11T20:46:53.004Z,100694.31
2023-05-11T20:49:34.604Z,100693.28
2023-05-11T20:52:07.163Z,100688.41
2023-05-11T20:54:36.381Z,100692.56
2023-05-11T20:57:04.766Z,100691.75
2023-05-11T21:02:05.088Z,100698.03
2023-05-11T21:04:33.740Z,100691.53
2023-05-11T21:07:02.118Z,100703.38
2023-05-11T21:09:30.607Z,100699.56
2023-05-11T21:11:59.568Z,100692.34
2023-05-11T21:14:28.032Z,100692.69
2023-05-11T21:16:57.012Z,100699.56
2023-05-11T21:19:24.990Z,100688.63
2023-05-11T21:21:53.374Z,100694.31
2023-05-11T21:24:21.255Z,100690.94
2023-05-11T21:26:49.417Z,100688.41
2023-05-11T21:29:17.709Z,100695.25
2023-05-11T21:31:46.249Z,100694.78
2023-05-11T21:34:14.853Z,100685.25
2023-05-11T21:36:43.472Z,100697.34
2023-05-11T21:39:15.793Z,100694.09
2023-05-11T21:41:43.962Z,100695.84
2023-05-11T21:44:12.344Z,100693.28
2023-05-11T21:46:40.186Z,100705.47
2023-05-11T21:49:09.074Z,100702.91
2023-05-11T21:51:36.873Z,100711.88
2023-05-11T21:54:05.254Z,100709.69
2023-05-11T21:56:33.228Z,100704.44
2023-05-11T21:59:01.492Z,100702.22
2023-05-11T22:01:29.833Z,100712.72
2023-05-11T22:04:00.867Z,100707.81
2023-05-11T22:06:29.441Z,100709.53
2023-05-11T22:08:57.649Z,100707.13
2023-05-11T22:11:27.550Z,100712.81
2023-05-11T22:13:55.863Z,100718.41
2023-05-11T22:16:23.837Z,100715.97
2023-05-11T22:18:52.236Z,100720.16
2023-05-11T22:21:20.062Z,100722.47
2023-05-11T22:23:48.035Z,100713.28
2023-05-11T22:26:16.437Z,100720.16
2023-05-11T22:28:45.171Z,100716.97
2023-05-11T22:31:13.614Z,100722.47
2023-05-11T22:33:41.691Z,100715.00
2023-05-11T22:36:11.675Z,100726.44
2023-05-11T22:38:40.123Z,100725.75
2023-05-11T22:41:08.375Z,100721.75
2023-05-11T22:43:36.283Z,100723.06
2023-05-11T22:46:04.993Z,100725.84
2023-05-11T22:48:33.527Z,100731.56
2023-05-11T22:51:06.181Z,100727.81
2023-05-11T22:53:34.405Z,100726.66
2023-05-11T22:56:07.487Z,100716.44
2023-05-11T22:58:35.559Z,100723.66
2023-05-11T23:01:03.959Z,100728.09
2023-05-11T23:03:32.351Z,100720.50
2023-05-11T23:06:00.334Z,100724.56
2023-05-11T23:08:28.729Z,100724.47
2023-05-11T23:10:57.017Z,100723.66
2023-05-11T23:13:25.123Z,100724.81
2023-05-11T23:15:53.076Z,100722.41
2023-05-11T23:18:21.194Z,100726.44
2023-05-11T23:20:55.592Z,100729.44
2023-05-11T23:23:24.723Z,100727.16
2023-05-11T23:25:53.080Z,100727.16
2023-05-11T23:28:21.295Z,100738.66
2023-05-11T23:30:49.988Z,100732.94
2023-05-11T23:33:18.104Z,100732.38
2023-05-11T23:35:48.404Z,100738.41
2023-05-11T23:38:16.885Z,100737.16
2023-05-11T23:40:44.731Z,100733.91
2023-05-11T23:43:13.091Z,100742.06
2023-05-11T23:45:40.944Z,100734.72
2023-05-11T23:48:09.476Z,100736.47
2023-05-11T23:50:37.785Z,100732.03
2023-05-11T23:53:06.048Z,100735.53
2023-05-11T23:55:34.151Z,100730.03
2023-05-11T23:58:02.089Z,100731.81
